sensor_id;sensor_type;location;lat;lon;timestamp;P1;durP1;ratioP1;P2;durP2;ratioP2
74059;SDS011;62414;53.436;8.828;2022-10-22T00:00:00;45.30;;;18.97;;
74059;SDS011;62414;53.436;8.828;2022-10-22T00:02:26;44.70;;;18.52;;
74059;SDS011;62414;53.436;8.828;2022-10-22T00:04:51;47.00;;;18.67;;
74059;SDS011;62414;53.436;8.828;2022-10-22T00:07:19;43.72;;;18.20;;
74059;SDS011;62414;53.436;8.828;2022-10-22T00:09:45;45.58;;;18.75;;
74059;SDS011;62414;53.436;8.828;2022-10-22T00:12:11;41.75;;;16.52;;
74059;SDS011;62414;53.436;8.828;2022-10-22T00:14:37;40.00;;;16.67;;
74059;SDS011;62414;53.436;8.828;2022-10-22T00:17:02;37.57;;;16.53;;
74059;SDS011;62414;53.436;8.828;2022-10-22T00:19:28;35.07;;;15.83;;
74059;SDS011;62414;53.436;8.828;2022-10-22T00:21:53;34.25;;;15.68;;
74059;SDS011;62414;53.436;8.828;2022-10-22T00:24:20;37.00;;;15.43;;
74059;SDS011;62414;53.436;8.828;2022-10-22T00:26:46;41.83;;;16.70;;
74059;SDS011;62414;53.436;8.828;2022-10-22T00:29:12;46.60;;;18.88;;
74059;SDS011;62414;53.436;8.828;2022-10-22T00:31:37;61.70;;;22.10;;
74059;SDS011;62414;53.436;8.828;2022-10-22T00:34:02;55.20;;;20.77;;
74059;SDS011;62414;53.436;8.828;2022-10-22T00:36:28;61.90;;;22.93;;
74059;SDS011;62414;53.436;8.828;2022-10-22T00:38:53;61.43;;;23.17;;
74059;SDS011;62414;53.436;8.828;2022-10-22T00:41:20;53.63;;;20.00;;
74059;SDS011;62414;53.436;8.828;2022-10-22T00:43:52;60.63;;;21.83;;
74059;SDS011;62414;53.436;8.828;2022-10-22T00:46:19;51.92;;;20.38;;
74059;SDS011;62414;53.436;8.828;2022-10-22T00:48:44;45.83;;;18.40;;
74059;SDS011;62414;53.436;8.828;2022-10-22T00:51:10;43.47;;;17.73;;
74059;SDS011;62414;53.436;8.828;2022-10-22T00:53:36;47.47;;;18.52;;
74059;SDS011;62414;53.436;8.828;2022-10-22T00:56:03;41.37;;;17.57;;
74059;SDS011;62414;53.436;8.828;2022-10-22T00:58:32;42.15;;;17.75;;
74059;SDS011;62414;53.436;8.828;2022-10-22T01:01:00;42.42;;;16.50;;
74059;SDS011;62414;53.436;8.828;2022-10-22T01:03:27;34.88;;;16.25;;
74059;SDS011;62414;53.436;8.828;2022-10-22T01:05:54;34.92;;;15.20;;
74059;SDS011;62414;53.436;8.828;2022-10-22T01:08:23;30.40;;;14.97;;
74059;SDS011;62414;53.436;8.828;2022-10-22T01:10:54;31.75;;;14.98;;
74059;SDS011;62414;53.436;8.828;2022-10-22T01:13:32;34.50;;;14.98;;
74059;SDS011;62414;53.436;8.828;2022-10-22T01:16:04;30.67;;;14.13;;
74059;SDS011;62414;53.436;8.828;2022-10-22T01:18:36;29.17;;;12.98;;
74059;SDS011;62414;53.436;8.828;2022-10-22T01:21:10;30.57;;;14.13;;
74059;SDS011;62414;53.436;8.828;2022-10-22T01:23:46;29.02;;;13.65;;
74059;SDS011;62414;53.436;8.828;2022-10-22T01:26:31;33.42;;;13.57;;
74059;SDS011;62414;53.436;8.828;2022-10-22T01:29:08;27.45;;;13.02;;
74059;SDS011;62414;53.436;8.828;2022-10-22T01:31:37;26.25;;;12.52;;
74059;SDS011;62414;53.436;8.828;2022-10-22T01:34:07;27.47;;;12.57;;
74059;SDS011;62414;53.436;8.828;2022-10-22T01:36:34;26.50;;;12.20;;
74059;SDS011;62414;53.436;8.828;2022-10-22T01:39:01;24.15;;;11.80;;
74059;SDS011;62414;53.436;8.828;2022-10-22T01:41:28;22.52;;;11.52;;
74059;SDS011;62414;53.436;8.828;2022-10-22T01:43:54;25.05;;;11.90;;
74059;SDS011;62414;53.436;8.828;2022-10-22T01:46:21;34.37;;;14.27;;
74059;SDS011;62414;53.436;8.828;2022-10-22T01:48:52;92.32;;;20.75;;
74059;SDS011;62414;53.436;8.828;2022-10-22T01:51:31;78.50;;;22.00;;
74059;SDS011;62414;53.436;8.828;2022-10-22T01:54:10;64.97;;;21.52;;
74059;SDS011;62414;53.436;8.828;2022-10-22T01:56:47;93.18;;;22.70;;
74059;SDS011;62414;53.436;8.828;2022-10-22T01:59:24;65.47;;;21.55;;
74059;SDS011;62414;53.436;8.828;2022-10-22T02:01:58;63.85;;;21.52;;
74059;SDS011;62414;53.436;8.828;2022-10-22T02:04:31;58.53;;;20.77;;
74059;SDS011;62414;53.436;8.828;2022-10-22T02:07:00;66.05;;;22.30;;
74059;SDS011;62414;53.436;8.828;2022-10-22T02:09:30;133.95;;;24.50;;
74059;SDS011;62414;53.436;8.828;2022-10-22T02:11:57;92.55;;;25.15;;
74059;SDS011;62414;53.436;8.828;2022-10-22T02:14:25;86.07;;;23.25;;
74059;SDS011;62414;53.436;8.828;2022-10-22T02:16:53;115.80;;;25.73;;
74059;SDS011;62414;53.436;8.828;2022-10-22T02:19:24;88.53;;;24.42;;
74059;SDS011;62414;53.436;8.828;2022-10-22T02:21:51;97.85;;;24.40;;
74059;SDS011;62414;53.436;8.828;2022-10-22T02:24:17;86.55;;;25.48;;
74059;SDS011;62414;53.436;8.828;2022-10-22T02:26:45;122.60;;;24.65;;
74059;SDS011;62414;53.436;8.828;2022-10-22T02:29:17;84.17;;;24.10;;
74059;SDS011;62414;53.436;8.828;2022-10-22T02:31:46;94.35;;;24.67;;
74059;SDS011;62414;53.436;8.828;2022-10-22T02:34:14;148.63;;;26.25;;
74059;SDS011;62414;53.436;8.828;2022-10-22T02:36:45;90.93;;;24.33;;
74059;SDS011;62414;53.436;8.828;2022-10-22T02:39:11;91.85;;;25.15;;
74059;SDS011;62414;53.436;8.828;2022-10-22T02:41:38;90.97;;;25.40;;
74059;SDS011;62414;53.436;8.828;2022-10-22T02:44:06;97.72;;;25.00;;
74059;SDS011;62414;53.436;8.828;2022-10-22T02:46:33;117.70;;;26.25;;
74059;SDS011;62414;53.436;8.828;2022-10-22T02:48:58;84.47;;;24.43;;
74059;SDS011;62414;53.436;8.828;2022-10-22T02:51:24;78.28;;;24.90;;
74059;SDS011;62414;53.436;8.828;2022-10-22T02:53:50;85.43;;;25.70;;
74059;SDS011;62414;53.436;8.828;2022-10-22T02:56:16;86.20;;;25.73;;
74059;SDS011;62414;53.436;8.828;2022-10-22T02:58:41;74.93;;;23.97;;
74059;SDS011;62414;53.436;8.828;2022-10-22T03:01:07;75.77;;;25.17;;
74059;SDS011;62414;53.436;8.828;2022-10-22T03:03:32;74.60;;;24.63;;
74059;SDS011;62414;53.436;8.828;2022-10-22T03:05:58;72.33;;;25.23;;
74059;SDS011;62414;53.436;8.828;2022-10-22T03:08:23;70.90;;;24.37;;
74059;SDS011;62414;53.436;8.828;2022-10-22T03:10:50;74.43;;;24.80;;
74059;SDS011;62414;53.436;8.828;2022-10-22T03:13:16;69.90;;;24.35;;
74059;SDS011;62414;53.436;8.828;2022-10-22T03:15:41;65.43;;;23.47;;
74059;SDS011;62414;53.436;8.828;2022-10-22T03:18:06;62.67;;;22.80;;
74059;SDS011;62414;53.436;8.828;2022-10-22T03:20:32;60.50;;;23.02;;
74059;SDS011;62414;53.436;8.828;2022-10-22T03:22:58;60.73;;;22.03;;
74059;SDS011;62414;53.436;8.828;2022-10-22T03:25:25;61.47;;;22.35;;
74059;SDS011;62414;53.436;8.828;2022-10-22T03:27:56;60.80;;;22.35;;
74059;SDS011;62414;53.436;8.828;2022-10-22T03:30:26;63.83;;;22.52;;
74059;SDS011;62414;53.436;8.828;2022-10-22T03:32:52;66.97;;;23.20;;
74059;SDS011;62414;53.436;8.828;2022-10-22T03:35:17;60.13;;;22.57;;
74059;SDS011;62414;53.436;8.828;2022-10-22T03:37:43;67.13;;;22.95;;
74059;SDS011;62414;53.436;8.828;2022-10-22T03:40:09;60.60;;;22.47;;
74059;SDS011;62414;53.436;8.828;2022-10-22T03:42:35;63.90;;;23.42;;
74059;SDS011;62414;53.436;8.828;2022-10-22T03:45:02;67.80;;;23.87;;
74059;SDS011;62414;53.436;8.828;2022-10-22T03:47:28;63.88;;;22.35;;
74059;SDS011;62414;53.436;8.828;2022-10-22T03:49:54;63.40;;;22.00;;
74059;SDS011;62414;53.436;8.828;2022-10-22T03:52:19;61.75;;;22.38;;
74059;SDS011;62414;53.436;8.828;2022-10-22T03:54:45;65.73;;;22.90;;
74059;SDS011;62414;53.436;8.828;2022-10-22T03:57:10;53.13;;;20.53;;
74059;SDS011;62414;53.436;8.828;2022-10-22T03:59:36;61.22;;;22.48;;
74059;SDS011;62414;53.436;8.828;2022-10-22T04:02:04;53.17;;;21.13;;
74059;SDS011;62414;53.436;8.828;2022-10-22T04:04:30;57.03;;;21.30;;
74059;SDS011;62414;53.436;8.828;2022-10-22T04:06:55;55.88;;;20.70;;
74059;SDS011;62414;53.436;8.828;2022-10-22T04:09:21;51.50;;;19.30;;
74059;SDS011;62414;53.436;8.828;2022-10-22T04:11:46;58.93;;;21.80;;
74059;SDS011;62414;53.436;8.828;2022-10-22T04:14:12;62.20;;;20.97;;
74059;SDS011;62414;53.436;8.828;2022-10-22T04:16:38;58.87;;;20.17;;
74059;SDS011;62414;53.436;8.828;2022-10-22T04:19:05;56.45;;;20.92;;
74059;SDS011;62414;53.436;8.828;2022-10-22T04:21:31;52.83;;;20.13;;
74059;SDS011;62414;53.436;8.828;2022-10-22T04:23:57;59.30;;;20.90;;
74059;SDS011;62414;53.436;8.828;2022-10-22T04:26:22;51.67;;;20.10;;
74059;SDS011;62414;53.436;8.828;2022-10-22T04:28:49;53.05;;;19.23;;
74059;SDS011;62414;53.436;8.828;2022-10-22T04:31:16;48.83;;;18.93;;
74059;SDS011;62414;53.436;8.828;2022-10-22T04:33:44;46.10;;;18.52;;
74059;SDS011;62414;53.436;8.828;2022-10-22T04:36:11;47.38;;;18.65;;
74059;SDS011;62414;53.436;8.828;2022-10-22T04:38:38;45.63;;;18.52;;
74059;SDS011;62414;53.436;8.828;2022-10-22T04:41:08;47.03;;;18.63;;
74059;SDS011;62414;53.436;8.828;2022-10-22T04:43:34;41.33;;;17.87;;
74059;SDS011;62414;53.436;8.828;2022-10-22T04:46:00;44.25;;;17.92;;
74059;SDS011;62414;53.436;8.828;2022-10-22T04:48:25;35.87;;;16.30;;
74059;SDS011;62414;53.436;8.828;2022-10-22T04:50:51;35.30;;;16.00;;
74059;SDS011;62414;53.436;8.828;2022-10-22T04:53:17;35.47;;;15.47;;
74059;SDS011;62414;53.436;8.828;2022-10-22T04:55:43;37.80;;;16.40;;
74059;SDS011;62414;53.436;8.828;2022-10-22T04:58:08;40.73;;;17.00;;
74059;SDS011;62414;53.436;8.828;2022-10-22T05:00:34;42.50;;;17.05;;
74059;SDS011;62414;53.436;8.828;2022-10-22T05:02:59;39.50;;;16.57;;
74059;SDS011;62414;53.436;8.828;2022-10-22T05:05:24;41.07;;;16.90;;
74059;SDS011;62414;53.436;8.828;2022-10-22T05:07:50;42.67;;;17.37;;
74059;SDS011;62414;53.436;8.828;2022-10-22T05:10:17;40.83;;;17.60;;
74059;SDS011;62414;53.436;8.828;2022-10-22T05:12:42;48.83;;;19.08;;
74059;SDS011;62414;53.436;8.828;2022-10-22T05:15:08;41.03;;;17.03;;
74059;SDS011;62414;53.436;8.828;2022-10-22T05:17:34;43.47;;;17.45;;
74059;SDS011;62414;53.436;8.828;2022-10-22T05:19:59;42.20;;;17.57;;
74059;SDS011;62414;53.436;8.828;2022-10-22T05:22:25;39.83;;;17.20;;
74059;SDS011;62414;53.436;8.828;2022-10-22T05:24:50;42.33;;;18.27;;
74059;SDS011;62414;53.436;8.828;2022-10-22T05:27:17;50.80;;;19.20;;
74059;SDS011;62414;53.436;8.828;2022-10-22T05:29:42;48.40;;;18.25;;
74059;SDS011;62414;53.436;8.828;2022-10-22T05:32:08;47.63;;;18.47;;
74059;SDS011;62414;53.436;8.828;2022-10-22T05:34:34;45.13;;;18.90;;
74059;SDS011;62414;53.436;8.828;2022-10-22T05:36:59;46.10;;;18.70;;
74059;SDS011;62414;53.436;8.828;2022-10-22T05:39:25;45.67;;;19.57;;
74059;SDS011;62414;53.436;8.828;2022-10-22T05:41:50;48.28;;;19.08;;
74059;SDS011;62414;53.436;8.828;2022-10-22T05:44:17;44.13;;;18.93;;
74059;SDS011;62414;53.436;8.828;2022-10-22T05:46:42;40.72;;;17.83;;
74059;SDS011;62414;53.436;8.828;2022-10-22T05:49:11;41.87;;;18.07;;
74059;SDS011;62414;53.436;8.828;2022-10-22T05:51:37;42.15;;;17.92;;
74059;SDS011;62414;53.436;8.828;2022-10-22T05:54:04;44.63;;;18.80;;
74059;SDS011;62414;53.436;8.828;2022-10-22T05:56:30;43.30;;;19.45;;
74059;SDS011;62414;53.436;8.828;2022-10-22T05:58:56;45.83;;;18.63;;
74059;SDS011;62414;53.436;8.828;2022-10-22T06:01:24;46.08;;;18.85;;
74059;SDS011;62414;53.436;8.828;2022-10-22T06:03:51;43.92;;;18.38;;
74059;SDS011;62414;53.436;8.828;2022-10-22T06:06:18;47.22;;;20.00;;
74059;SDS011;62414;53.436;8.828;2022-10-22T06:08:45;46.60;;;19.13;;
74059;SDS011;62414;53.436;8.828;2022-10-22T06:11:12;48.47;;;20.03;;
74059;SDS011;62414;53.436;8.828;2022-10-22T06:13:37;49.20;;;19.27;;
74059;SDS011;62414;53.436;8.828;2022-10-22T06:16:03;43.17;;;19.10;;
74059;SDS011;62414;53.436;8.828;2022-10-22T06:18:30;42.13;;;19.83;;
74059;SDS011;62414;53.436;8.828;2022-10-22T06:21:02;43.57;;;19.97;;
74059;SDS011;62414;53.436;8.828;2022-10-22T06:23:28;42.58;;;19.63;;
74059;SDS011;62414;53.436;8.828;2022-10-22T06:25:56;41.83;;;19.07;;
74059;SDS011;62414;53.436;8.828;2022-10-22T06:28:22;39.55;;;17.85;;
74059;SDS011;62414;53.436;8.828;2022-10-22T06:30:48;42.80;;;18.70;;
74059;SDS011;62414;53.436;8.828;2022-10-22T06:33:13;43.30;;;18.77;;
74059;SDS011;62414;53.436;8.828;2022-10-22T06:35:40;45.53;;;18.17;;
74059;SDS011;62414;53.436;8.828;2022-10-22T06:38:06;47.00;;;19.23;;
74059;SDS011;62414;53.436;8.828;2022-10-22T06:40:31;42.63;;;18.20;;
74059;SDS011;62414;53.436;8.828;2022-10-22T06:42:57;46.17;;;19.88;;
74059;SDS011;62414;53.436;8.828;2022-10-22T06:45:23;44.40;;;19.03;;
74059;SDS011;62414;53.436;8.828;2022-10-22T06:47:48;44.58;;;19.05;;
74059;SDS011;62414;53.436;8.828;2022-10-22T06:50:14;45.47;;;19.80;;
74059;SDS011;62414;53.436;8.828;2022-10-22T06:52:40;43.87;;;19.17;;
74059;SDS011;62414;53.436;8.828;2022-10-22T06:55:06;44.50;;;18.52;;
74059;SDS011;62414;53.436;8.828;2022-10-22T06:57:32;46.03;;;19.42;;
74059;SDS011;62414;53.436;8.828;2022-10-22T06:59:57;42.30;;;19.43;;
74059;SDS011;62414;53.436;8.828;2022-10-22T07:02:23;42.70;;;19.23;;
74059;SDS011;62414;53.436;8.828;2022-10-22T07:04:48;43.15;;;18.67;;
74059;SDS011;62414;53.436;8.828;2022-10-22T07:07:14;45.37;;;19.20;;
74059;SDS011;62414;53.436;8.828;2022-10-22T07:09:41;46.07;;;18.73;;
74059;SDS011;62414;53.436;8.828;2022-10-22T07:12:06;43.40;;;19.50;;
74059;SDS011;62414;53.436;8.828;2022-10-22T07:14:32;47.90;;;20.50;;
74059;SDS011;62414;53.436;8.828;2022-10-22T07:16:57;50.57;;;21.43;;
74059;SDS011;62414;53.436;8.828;2022-10-22T07:19:23;47.25;;;20.45;;
74059;SDS011;62414;53.436;8.828;2022-10-22T07:21:49;46.43;;;21.07;;
74059;SDS011;62414;53.436;8.828;2022-10-22T07:24:14;46.70;;;20.43;;
74059;SDS011;62414;53.436;8.828;2022-10-22T07:26:41;45.63;;;20.33;;
74059;SDS011;62414;53.436;8.828;2022-10-22T07:29:06;44.25;;;19.67;;
74059;SDS011;62414;53.436;8.828;2022-10-22T07:31:32;43.63;;;19.67;;
74059;SDS011;62414;53.436;8.828;2022-10-22T07:33:57;44.13;;;19.07;;
74059;SDS011;62414;53.436;8.828;2022-10-22T07:36:23;40.47;;;18.20;;
74059;SDS011;62414;53.436;8.828;2022-10-22T07:38:54;34.77;;;17.37;;
74059;SDS011;62414;53.436;8.828;2022-10-22T07:41:20;40.28;;;18.30;;
74059;SDS011;62414;53.436;8.828;2022-10-22T07:43:47;41.00;;;17.80;;
74059;SDS011;62414;53.436;8.828;2022-10-22T07:46:12;36.50;;;17.90;;
74059;SDS011;62414;53.436;8.828;2022-10-22T07:48:38;35.57;;;17.23;;
74059;SDS011;62414;53.436;8.828;2022-10-22T07:51:03;36.27;;;16.80;;
74059;SDS011;62414;53.436;8.828;2022-10-22T07:53:29;34.63;;;16.50;;
74059;SDS011;62414;53.436;8.828;2022-10-22T07:55:54;31.83;;;15.27;;
74059;SDS011;62414;53.436;8.828;2022-10-22T07:58:20;36.15;;;16.50;;
74059;SDS011;62414;53.436;8.828;2022-10-22T08:00:48;32.72;;;15.73;;
74059;SDS011;62414;53.436;8.828;2022-10-22T08:03:14;31.20;;;15.57;;
74059;SDS011;62414;53.436;8.828;2022-10-22T08:05:41;30.00;;;14.80;;
74059;SDS011;62414;53.436;8.828;2022-10-22T08:08:07;27.95;;;14.07;;
74059;SDS011;62414;53.436;8.828;2022-10-22T08:10:32;28.07;;;13.40;;
74059;SDS011;62414;53.436;8.828;2022-10-22T08:12:58;26.50;;;13.32;;
74059;SDS011;62414;53.436;8.828;2022-10-22T08:15:23;25.63;;;12.43;;
74059;SDS011;62414;53.436;8.828;2022-10-22T08:17:50;27.08;;;12.23;;
74059;SDS011;62414;53.436;8.828;2022-10-22T08:20:16;25.25;;;11.95;;
74059;SDS011;62414;53.436;8.828;2022-10-22T08:22:42;31.70;;;12.40;;
74059;SDS011;62414;53.436;8.828;2022-10-22T08:25:07;21.63;;;11.40;;
74059;SDS011;62414;53.436;8.828;2022-10-22T08:27:33;26.95;;;12.27;;
74059;SDS011;62414;53.436;8.828;2022-10-22T08:29:58;23.67;;;12.13;;
74059;SDS011;62414;53.436;8.828;2022-10-22T08:32:24;22.45;;;12.10;;
74059;SDS011;62414;53.436;8.828;2022-10-22T08:34:51;26.60;;;12.40;;
74059;SDS011;62414;53.436;8.828;2022-10-22T08:37:16;25.40;;;11.52;;
74059;SDS011;62414;53.436;8.828;2022-10-22T08:39:42;21.20;;;12.10;;
74059;SDS011;62414;53.436;8.828;2022-10-22T08:42:20;21.70;;;12.10;;
74059;SDS011;62414;53.436;8.828;2022-10-22T08:45:10;21.80;;;11.03;;
74059;SDS011;62414;53.436;8.828;2022-10-22T08:47:51;20.17;;;11.15;;
74059;SDS011;62414;53.436;8.828;2022-10-22T08:50:30;23.90;;;10.75;;
74059;SDS011;62414;53.436;8.828;2022-10-22T08:53:00;19.60;;;10.27;;
74059;SDS011;62414;53.436;8.828;2022-10-22T08:55:29;21.88;;;10.38;;
74059;SDS011;62414;53.436;8.828;2022-10-22T08:57:57;19.03;;;10.00;;
74059;SDS011;62414;53.436;8.828;2022-10-22T09:00:28;19.98;;;9.73;;
74059;SDS011;62414;53.436;8.828;2022-10-22T09:03:01;21.45;;;9.60;;
74059;SDS011;62414;53.436;8.828;2022-10-22T09:05:40;19.42;;;8.95;;
74059;SDS011;62414;53.436;8.828;2022-10-22T09:08:12;16.70;;;8.70;;
74059;SDS011;62414;53.436;8.828;2022-10-22T09:10:42;19.20;;;8.97;;
74059;SDS011;62414;53.436;8.828;2022-10-22T09:13:12;17.27;;;8.30;;
74059;SDS011;62414;53.436;8.828;2022-10-22T09:15:47;18.08;;;8.43;;
74059;SDS011;62414;53.436;8.828;2022-10-22T09:18:18;16.20;;;8.05;;
74059;SDS011;62414;53.436;8.828;2022-10-22T09:20:57;18.88;;;8.30;;
74059;SDS011;62414;53.436;8.828;2022-10-22T09:23:28;17.03;;;7.80;;
74059;SDS011;62414;53.436;8.828;2022-10-22T09:26:01;14.85;;;7.50;;
74059;SDS011;62414;53.436;8.828;2022-10-22T09:28:28;18.05;;;7.72;;
74059;SDS011;62414;53.436;8.828;2022-10-22T09:30:54;17.37;;;7.60;;
74059;SDS011;62414;53.436;8.828;2022-10-22T09:33:21;17.93;;;8.47;;
74059;SDS011;62414;53.436;8.828;2022-10-22T09:35:50;16.53;;;8.30;;
74059;SDS011;62414;53.436;8.828;2022-10-22T09:38:19;18.33;;;8.70;;
74059;SDS011;62414;53.436;8.828;2022-10-22T09:40:47;17.95;;;8.05;;
74059;SDS011;62414;53.436;8.828;2022-10-22T09:43:15;12.93;;;7.10;;
74059;SDS011;62414;53.436;8.828;2022-10-22T09:45:41;15.98;;;6.80;;
74059;SDS011;62414;53.436;8.828;2022-10-22T09:48:10;12.57;;;6.63;;
74059;SDS011;62414;53.436;8.828;2022-10-22T09:50:41;13.43;;;6.32;;
74059;SDS011;62414;53.436;8.828;2022-10-22T09:53:11;15.38;;;6.70;;
74059;SDS011;62414;53.436;8.828;2022-10-22T09:55:39;11.02;;;5.13;;
74059;SDS011;62414;53.436;8.828;2022-10-22T09:58:07;12.05;;;5.10;;
74059;SDS011;62414;53.436;8.828;2022-10-22T10:00:36;13.23;;;4.60;;
74059;SDS011;62414;53.436;8.828;2022-10-22T10:03:02;12.90;;;4.47;;
74059;SDS011;62414;53.436;8.828;2022-10-22T10:05:29;10.93;;;4.40;;
74059;SDS011;62414;53.436;8.828;2022-10-22T10:07:56;11.52;;;4.38;;
74059;SDS011;62414;53.436;8.828;2022-10-22T10:10:33;12.00;;;4.60;;
74059;SDS011;62414;53.436;8.828;2022-10-22T10:13:10;10.63;;;4.38;;
74059;SDS011;62414;53.436;8.828;2022-10-22T10:15:49;15.10;;;4.70;;
74059;SDS011;62414;53.436;8.828;2022-10-22T10:18:23;11.70;;;4.13;;
74059;SDS011;62414;53.436;8.828;2022-10-22T10:20:58;11.88;;;4.75;;
74059;SDS011;62414;53.436;8.828;2022-10-22T10:23:32;12.20;;;4.90;;
74059;SDS011;62414;53.436;8.828;2022-10-22T10:26:06;10.82;;;4.95;;
74059;SDS011;62414;53.436;8.828;2022-10-22T10:31:34;10.40;;;4.40;;
74059;SDS011;62414;53.436;8.828;2022-10-22T10:34:07;12.48;;;4.70;;
74059;SDS011;62414;53.436;8.828;2022-10-22T10:36:43;11.70;;;4.82;;
74059;SDS011;62414;53.436;8.828;2022-10-22T10:39:16;11.73;;;4.82;;
74059;SDS011;62414;53.436;8.828;2022-10-22T10:41:49;11.90;;;4.90;;
74059;SDS011;62414;53.436;8.828;2022-10-22T10:44:36;10.00;;;4.60;;
74059;SDS011;62414;53.436;8.828;2022-10-22T10:47:15;14.25;;;4.68;;
74059;SDS011;62414;53.436;8.828;2022-10-22T10:49:50;10.93;;;4.50;;
74059;SDS011;62414;53.436;8.828;2022-10-22T10:52:21;10.80;;;4.57;;
74059;SDS011;62414;53.436;8.828;2022-10-22T10:54:57;10.75;;;4.65;;
74059;SDS011;62414;53.436;8.828;2022-10-22T10:57:35;15.53;;;4.70;;
74059;SDS011;62414;53.436;8.828;2022-10-22T11:00:13;11.05;;;4.07;;
74059;SDS011;62414;53.436;8.828;2022-10-22T11:02:48;10.55;;;4.07;;
74059;SDS011;62414;53.436;8.828;2022-10-22T11:05:29;12.60;;;4.40;;
74059;SDS011;62414;53.436;8.828;2022-10-22T11:08:01;14.02;;;4.53;;
74059;SDS011;62414;53.436;8.828;2022-10-22T11:10:31;14.43;;;4.70;;
74059;SDS011;62414;53.436;8.828;2022-10-22T11:13:02;11.23;;;4.63;;
74059;SDS011;62414;53.436;8.828;2022-10-22T11:15:34;10.70;;;5.00;;
74059;SDS011;62414;53.436;8.828;2022-10-22T11:18:04;11.65;;;4.57;;
74059;SDS011;62414;53.436;8.828;2022-10-22T11:20:41;9.38;;;4.10;;
74059;SDS011;62414;53.436;8.828;2022-10-22T11:23:12;10.80;;;4.43;;
74059;SDS011;62414;53.436;8.828;2022-10-22T11:25:43;13.55;;;4.90;;
74059;SDS011;62414;53.436;8.828;2022-10-22T11:28:11;12.95;;;5.47;;
74059;SDS011;62414;53.436;8.828;2022-10-22T11:30:42;14.15;;;5.47;;
74059;SDS011;62414;53.436;8.828;2022-10-22T11:33:14;15.30;;;5.72;;
74059;SDS011;62414;53.436;8.828;2022-10-22T11:35:42;12.63;;;5.27;;
74059;SDS011;62414;53.436;8.828;2022-10-22T11:38:11;12.38;;;5.50;;
74059;SDS011;62414;53.436;8.828;2022-10-22T11:40:42;14.65;;;5.90;;
74059;SDS011;62414;53.436;8.828;2022-10-22T11:43:10;10.82;;;5.57;;
74059;SDS011;62414;53.436;8.828;2022-10-22T11:45:53;14.82;;;5.30;;
74059;SDS011;62414;53.436;8.828;2022-10-22T11:48:22;17.03;;;5.80;;
74059;SDS011;62414;53.436;8.828;2022-10-22T11:50:53;13.38;;;5.40;;
74059;SDS011;62414;53.436;8.828;2022-10-22T11:53:25;13.88;;;5.18;;
74059;SDS011;62414;53.436;8.828;2022-10-22T11:55:55;14.38;;;5.10;;
74059;SDS011;62414;53.436;8.828;2022-10-22T11:58:26;14.10;;;5.20;;
74059;SDS011;62414;53.436;8.828;2022-10-22T12:01:11;11.87;;;4.80;;
74059;SDS011;62414;53.436;8.828;2022-10-22T12:03:43;10.93;;;4.57;;
74059;SDS011;62414;53.436;8.828;2022-10-22T12:06:20;11.00;;;4.60;;
74059;SDS011;62414;53.436;8.828;2022-10-22T12:08:50;10.45;;;4.65;;
74059;SDS011;62414;53.436;8.828;2022-10-22T12:11:20;11.35;;;4.82;;
74059;SDS011;62414;53.436;8.828;2022-10-22T12:16:42;11.20;;;4.30;;
74059;SDS011;62414;53.436;8.828;2022-10-22T12:19:11;11.30;;;4.43;;
74059;SDS011;62414;53.436;8.828;2022-10-22T12:21:40;12.90;;;4.05;;
74059;SDS011;62414;53.436;8.828;2022-10-22T12:24:08;13.30;;;3.83;;
74059;SDS011;62414;53.436;8.828;2022-10-22T12:26:37;10.70;;;3.67;;
74059;SDS011;62414;53.436;8.828;2022-10-22T12:29:08;11.48;;;3.75;;
74059;SDS011;62414;53.436;8.828;2022-10-22T12:31:36;10.52;;;3.42;;
74059;SDS011;62414;53.436;8.828;2022-10-22T12:34:04;11.30;;;3.73;;
74059;SDS011;62414;53.436;8.828;2022-10-22T12:36:30;8.77;;;3.17;;
74059;SDS011;62414;53.436;8.828;2022-10-22T12:38:58;11.18;;;3.30;;
74059;SDS011;62414;53.436;8.828;2022-10-22T12:41:28;13.65;;;3.70;;
74059;SDS011;62414;53.436;8.828;2022-10-22T12:43:57;14.30;;;3.63;;
74059;SDS011;62414;53.436;8.828;2022-10-22T12:46:23;12.73;;;3.27;;
74059;SDS011;62414;53.436;8.828;2022-10-22T12:48:49;15.52;;;4.00;;
74059;SDS011;62414;53.436;8.828;2022-10-22T12:51:16;12.13;;;3.60;;
74059;SDS011;62414;53.436;8.828;2022-10-22T12:53:44;11.90;;;3.67;;
74059;SDS011;62414;53.436;8.828;2022-10-22T12:56:11;12.50;;;4.13;;
74059;SDS011;62414;53.436;8.828;2022-10-22T12:58:39;10.67;;;4.00;;
74059;SDS011;62414;53.436;8.828;2022-10-22T13:01:08;10.50;;;3.75;;
74059;SDS011;62414;53.436;8.828;2022-10-22T13:03:36;11.98;;;4.05;;
74059;SDS011;62414;53.436;8.828;2022-10-22T13:06:12;11.80;;;4.20;;
74059;SDS011;62414;53.436;8.828;2022-10-22T13:08:40;11.07;;;4.68;;
74059;SDS011;62414;53.436;8.828;2022-10-22T13:11:06;9.93;;;4.47;;
74059;SDS011;62414;53.436;8.828;2022-10-22T13:13:36;9.70;;;4.35;;
74059;SDS011;62414;53.436;8.828;2022-10-22T13:16:16;13.15;;;5.15;;
74059;SDS011;62414;53.436;8.828;2022-10-22T13:18:44;11.60;;;4.07;;
74059;SDS011;62414;53.436;8.828;2022-10-22T13:21:25;10.20;;;4.20;;
74059;SDS011;62414;53.436;8.828;2022-10-22T13:23:55;10.50;;;3.97;;
74059;SDS011;62414;53.436;8.828;2022-10-22T13:26:23;12.68;;;3.97;;
74059;SDS011;62414;53.436;8.828;2022-10-22T13:28:54;11.23;;;4.30;;
74059;SDS011;62414;53.436;8.828;2022-10-22T13:31:22;9.93;;;4.53;;
74059;SDS011;62414;53.436;8.828;2022-10-22T13:33:50;11.15;;;4.53;;
74059;SDS011;62414;53.436;8.828;2022-10-22T13:36:17;11.07;;;4.80;;
74059;SDS011;62414;53.436;8.828;2022-10-22T13:38:43;10.77;;;4.82;;
74059;SDS011;62414;53.436;8.828;2022-10-22T13:41:20;12.48;;;5.20;;
74059;SDS011;62414;53.436;8.828;2022-10-22T13:43:47;12.00;;;5.00;;
74059;SDS011;62414;53.436;8.828;2022-10-22T13:46:13;13.00;;;5.40;;
74059;SDS011;62414;53.436;8.828;2022-10-22T13:48:39;14.55;;;5.43;;
74059;SDS011;62414;53.436;8.828;2022-10-22T13:51:06;12.57;;;5.20;;
74059;SDS011;62414;53.436;8.828;2022-10-22T13:53:38;12.05;;;5.82;;
74059;SDS011;62414;53.436;8.828;2022-10-22T13:56:03;12.13;;;5.32;;
74059;SDS011;62414;53.436;8.828;2022-10-22T13:58:30;14.23;;;5.97;;
74059;SDS011;62414;53.436;8.828;2022-10-22T14:00:56;12.38;;;5.50;;
74059;SDS011;62414;53.436;8.828;2022-10-22T14:03:24;12.73;;;5.25;;
74059;SDS011;62414;53.436;8.828;2022-10-22T14:05:52;13.65;;;4.78;;
74059;SDS011;62414;53.436;8.828;2022-10-22T14:08:17;11.03;;;4.20;;
74059;SDS011;62414;53.436;8.828;2022-10-22T14:10:45;10.32;;;4.28;;
74059;SDS011;62414;53.436;8.828;2022-10-22T14:13:11;10.40;;;4.50;;
74059;SDS011;62414;53.436;8.828;2022-10-22T14:15:38;9.77;;;4.65;;
74059;SDS011;62414;53.436;8.828;2022-10-22T14:18:04;11.63;;;4.93;;
74059;SDS011;62414;53.436;8.828;2022-10-22T14:20:32;10.85;;;5.32;;
74059;SDS011;62414;53.436;8.828;2022-10-22T14:23:01;10.70;;;4.67;;
74059;SDS011;62414;53.436;8.828;2022-10-22T14:25:32;10.43;;;5.00;;
74059;SDS011;62414;53.436;8.828;2022-10-22T14:27:57;12.80;;;4.70;;
74059;SDS011;62414;53.436;8.828;2022-10-22T14:30:23;12.17;;;4.80;;
74059;SDS011;62414;53.436;8.828;2022-10-22T14:32:51;12.20;;;4.32;;
74059;SDS011;62414;53.436;8.828;2022-10-22T14:35:18;10.20;;;4.23;;
74059;SDS011;62414;53.436;8.828;2022-10-22T14:37:44;9.77;;;3.92;;